Time;durP1;ratioP1;P1;durP2;ratioP2;P2;SDS_P1;SDS_P2;PMS_P1;PMS_P2;Temp;Humidity;BMP_temperature;BMP_pressure;BME280_temperature;BME280_humidity;BME280_pressure;Samples;Min_cycle;Max_cycle;Signal;HPM_P1;HPM_P2
2022/02/06 00:01:12;;;;;;;17.80;8.93;;;4.80;16.20;;;;;;5054573;28;20033;-73
2022/02/06 00:03:39;;;;;;;9.30;2.55;;;4.80;16.00;;;;;;5054206;28;20033;-73
2022/02/06 00:06:04;;;;;;;7.50;2.30;;;4.70;15.60;;;;;;5054339;28;20063;-73
2022/02/06 00:08:30;;;;;;;5.90;2.58;;;4.70;15.20;;;;;;5054720;28;20053;-73
2022/02/06 00:10:56;;;;;;;5.93;2.30;;;4.80;15.10;;;;;;5054143;28;20037;-74
2022/02/06 00:13:22;;;;;;;7.45;1.92;;;4.90;15.60;;;;;;5036714;28;20037;-72
2022/02/06 00:15:48;;;;;;;10.38;2.40;;;4.80;13.20;;;;;;5054610;28;20123;-73
2022/02/06 00:18:13;;;;;;;6.78;2.08;;;4.80;11.80;;;;;;5054453;28;20040;-73
2022/02/06 00:20:50;;;;;;;6.78;1.92;;;4.70;11.40;;;;;;5054456;28;20028;-72
2022/02/06 00:23:18;;;;;;;4.05;2.10;;;4.80;11.50;;;;;;5054439;28;20120;-73
2022/02/06 00:26:09;;;;;;;5.03;1.90;;;4.80;11.00;;;;;;5054303;28;20032;-73
2022/02/06 00:28:43;;;;;;;7.45;2.00;;;4.90;10.10;;;;;;5054365;28;20060;-73
2022/02/06 00:31:22;;;;;;;11.27;4.70;;;5.10;9.10;;;;;;5053972;28;20581;-73
2022/02/06 00:39:13;;;;;;;4.78;1.75;;;5.20;8.20;;;;;;5053935;28;20085;-73
2022/02/06 00:41:39;;;;;;;7.90;1.88;;;5.00;7.40;;;;;;5054055;28;20040;-73
2022/02/06 00:44:07;;;;;;;8.00;2.30;;;5.10;8.00;;;;;;5054004;28;20045;-73
2022/02/06 00:46:36;;;;;;;10.40;1.73;;;5.10;8.00;;;;;;5053856;28;20077;-73
2022/02/06 00:49:21;;;;;;;4.40;1.52;;;5.20;7.00;;;;;;5053789;28;20072;-74
2022/02/06 00:54:48;;;;;;;3.25;1.70;;;5.20;6.10;;;;;;5031047;28;20116;-73
2022/02/06 00:57:14;;;;;;;6.68;1.83;;;5.20;6.60;;;;;;5048433;28;20779;-73
2022/02/06 00:59:39;;;;;;;3.83;1.60;;;5.00;6.80;;;;;;5053876;28;20048;-73
2022/02/06 01:02:05;;;;;;;6.00;1.70;;;5.10;5.70;;;;;;5053724;28;20391;-73
2022/02/06 01:04:34;;;;;;;6.85;2.13;;;5.20;6.20;;;;;;5053490;28;20128;-73
2022/02/06 01:07:01;;;;;;;7.03;1.85;;;5.10;5.70;;;;;;5053192;28;20072;-73
2022/02/06 01:09:27;;;;;;;4.30;1.55;;;5.20;6.30;;;;;;5053093;28;20040;-73
2022/02/06 01:11:54;;;;;;;5.82;2.00;;;5.10;7.40;;;;;;5053604;28;20040;-73
2022/02/06 01:17:32;;;;;;;5.38;1.30;;;5.10;6.50;;;;;;5053521;28;20094;-73
2022/02/06 01:19:49;;;;;;;6.03;1.83;;;5.00;6.90;;;;;;5048425;28;20073;-73
2022/02/06 01:22:19;;;;;;;7.73;1.90;;;5.00;7.60;;;;;;5054485;28;20048;-73
2022/02/06 01:24:57;;;;;;;8.45;2.38;;;4.90;7.50;;;;;;5054843;28;20028;-73
2022/02/06 01:27:34;;;;;;;7.43;2.08;;;4.90;7.00;;;;;;5054593;28;20075;-73
2022/02/06 01:30:11;;;;;;;7.72;1.70;;;5.00;7.20;;;;;;5054225;28;20051;-73
2022/02/06 01:32:44;;;;;;;8.40;1.45;;;4.90;8.20;;;;;;5054648;28;20063;-73
2022/02/06 01:35:12;;;;;;;5.80;1.58;;;4.90;8.70;;;;;;5054662;28;20053;-73
2022/02/06 01:37:53;;;;;;;5.97;1.65;;;5.00;7.80;;;;;;5054672;28;20100;-73
2022/02/06 01:43:14;;;;;;;4.88;1.33;;;5.00;7.80;;;;;;5034591;28;20128;-73
2022/02/06 02:21:09;;;;;;;6.05;1.67;;;4.90;5.70;;;;;;5053965;28;20036;-73
2022/02/06 02:49:37;;;;;;;8.93;2.00;;;4.80;5.60;;;;;;5057823;28;20527;-73
2022/02/06 02:52:09;;;;;;;5.38;1.30;;;4.80;6.00;;;;;;5057691;28;20518;-73
2022/02/06 02:54:37;;;;;;;4.07;1.38;;;4.70;6.30;;;;;;5057443;28;20534;-73
2022/02/06 02:57:16;;;;;;;3.70;1.27;;;4.90;6.00;;;;;;5057728;28;20109;-73
2022/02/06 03:00:06;;;;;;;5.38;1.60;;;4.90;5.40;;;;;;5057815;28;20032;-73
2022/02/06 03:02:32;;;;;;;5.18;1.30;;;4.70;5.80;;;;;;5057696;28;20045;-73
2022/02/06 03:04:59;;;;;;;9.80;1.40;;;4.80;5.40;;;;;;5057289;28;20518;-73
2022/02/06 03:07:25;;;;;;;3.85;1.67;;;5.00;5.00;;;;;;5056920;28;20372;-73
2022/02/06 03:09:51;;;;;;;4.80;1.35;;;5.00;4.90;;;;;;5057682;28;20049;-73
2022/02/06 03:12:23;;;;;;;4.68;1.50;;;5.10;4.40;;;;;;5057405;28;20121;-73
2022/02/06 03:14:56;;;;;;;6.90;1.67;;;4.90;5.60;;;;;;5057516;28;20048;-73
2022/02/06 03:17:34;;;;;;;6.72;1.70;;;4.80;6.10;;;;;;5057445;28;20048;-73
2022/02/06 03:20:07;;;;;;;4.78;1.55;;;4.80;6.20;;;;;;5057053;28;20033;-73
2022/02/06 03:22:46;;;;;;;3.85;1.33;;;4.60;5.70;;;;;;5057331;28;20041;-73
2022/02/06 03:25:18;;;;;;;7.50;1.70;;;4.40;8.50;;;;;;5057607;28;20063;-73
2022/02/06 03:27:44;;;;;;;5.85;1.73;;;4.20;6.30;;;;;;5056871;28;20562;-73
2022/02/06 03:30:10;;;;;;;10.10;3.92;;;4.00;9.50;;;;;;5056747;28;20140;-73
2022/02/06 03:32:36;;;;;;;6.65;2.05;;;4.00;8.30;;;;;;5056668;28;20111;-73
2022/02/06 03:35:03;;;;;;;3.78;1.65;;;4.00;8.60;;;;;;5056147;28;20041;-73
2022/02/06 03:37:29;;;;;;;3.72;1.50;;;4.20;8.50;;;;;;5056246;28;20123;-73
2022/02/06 03:39:56;;;;;;;5.65;1.42;;;4.30;8.60;;;;;;5056829;28;20487;-73
2022/02/06 03:42:29;;;;;;;6.20;1.83;;;4.30;8.20;;;;;;5056435;28;20041;-73
2022/02/06 03:45:00;;;;;;;6.70;2.03;;;4.40;7.90;;;;;;5056441;28;20041;-73
2022/02/06 03:47:34;;;;;;;4.05;1.38;;;4.30;7.60;;;;;;5055699;28;20047;-73
2022/02/06 03:50:04;;;;;;;5.32;1.40;;;4.40;8.40;;;;;;5056240;28;20511;-73
2022/02/06 03:52:42;;;;;;;5.32;1.80;;;4.20;7.60;;;;;;5056208;28;20044;-72
2022/02/06 03:55:09;;;;;;;3.70;1.70;;;4.20;8.40;;;;;;5056007;28;20495;-73
2022/02/06 03:57:34;;;;;;;6.38;1.67;;;4.10;8.50;;;;;;5055949;28;20128;-73
2022/02/06 04:00:01;;;;;;;6.30;1.65;;;4.10;8.10;;;;;;5056457;28;20044;-73
2022/02/06 04:02:26;;;;;;;7.75;1.50;;;4.10;8.40;;;;;;5055796;28;20041;-73
2022/02/06 04:04:52;;;;;;;4.32;1.27;;;4.10;7.90;;;;;;5055598;28;20041;-73
2022/02/06 04:07:19;;;;;;;14.38;1.67;;;3.90;7.40;;;;;;5055898;28;20364;-73
2022/02/06 04:09:56;;;;;;;5.35;1.60;;;3.90;8.50;;;;;;5056540;28;20041;-73
2022/02/06 04:12:23;;;;;;;4.47;1.40;;;3.70;9.20;;;;;;5056290;28;20056;-72
2022/02/06 04:15:03;;;;;;;9.55;1.50;;;3.80;9.60;;;;;;5056363;28;20041;-73
2022/02/06 04:17:35;;;;;;;5.57;1.30;;;3.90;9.30;;;;;;5055448;28;20044;-72
2022/02/06 04:20:01;;;;;;;4.35;1.63;;;3.80;9.20;;;;;;5055267;28;20120;-73
2022/02/06 04:22:27;;;;;;;6.25;1.50;;;3.70;9.10;;;;;;5055374;28;20099;-73
2022/02/06 04:24:53;;;;;;;5.28;1.58;;;3.80;9.60;;;;;;5055353;28;20032;-73
2022/02/06 04:27:19;;;;;;;5.03;1.20;;;3.60;10.00;;;;;;5055425;28;20518;-73
2022/02/06 04:29:46;;;;;;;4.13;1.15;;;3.50;10.20;;;;;;5056093;28;20048;-73
2022/02/06 04:32:12;;;;;;;8.00;1.50;;;3.50;10.40;;;;;;5055404;28;20057;-73
2022/02/06 04:34:38;;;;;;;4.95;1.30;;;3.50;10.80;;;;;;5055314;28;20148;-73
2022/02/06 04:37:18;;;;;;;4.30;1.08;;;3.50;10.90;;;;;;5055615;28;20283;-73
2022/02/06 05:30:48;;;;;;;5.95;1.65;;;4.40;10.80;;;;;;5054508;28;20522;-73
2022/02/06 05:33:14;;;;;;;8.15;2.42;;;4.40;11.10;;;;;;5054036;28;20102;-73
2022/02/06 05:35:40;;;;;;;5.20;1.98;;;4.40;11.80;;;;;;5054335;28;20037;-73
2022/02/06 05:38:06;;;;;;;6.45;1.80;;;4.60;12.70;;;;;;5054147;28;20499;-73
2022/02/06 05:40:31;;;;;;;7.15;1.50;;;4.50;12.70;;;;;;5054568;28;20036;-73
2022/02/06 05:42:57;;;;;;;9.07;2.67;;;4.40;14.60;;;;;;5054407;28;20052;-73
2022/02/06 05:45:23;;;;;;;6.28;1.60;;;4.40;23.20;;;;;;5054141;28;20118;-73
2022/02/06 05:47:50;;;;;;;5.70;1.50;;;4.40;38.00;;;;;;5054214;28;20124;-73
2022/02/06 05:50:17;;;;;;;5.35;2.08;;;4.30;20.30;;;;;;5054058;28;20037;-73
2022/02/06 05:52:44;;;;;;;7.28;1.45;;;4.30;39.20;;;;;;5054215;28;20033;-72
2022/02/06 05:55:10;;;;;;;3.63;1.35;;;4.30;41.30;;;;;;5054294;28;20064;-73
2022/02/06 05:57:37;;;;;;;7.32;1.60;;;4.30;17.00;;;;;;5054283;28;20503;-73
2022/02/06 06:00:04;;;;;;;8.40;1.92;;;4.40;15.80;;;;;;5054867;28;20037;-73
2022/02/06 06:02:30;;;;;;;9.10;1.45;;;4.30;17.80;;;;;;5053776;28;20127;-73
2022/02/06 06:04:56;;;;;;;6.88;1.27;;;4.50;19.10;;;;;;5054325;28;20122;-73
2022/02/06 06:07:24;;;;;;;4.35;1.45;;;4.40;12.20;;;;;;5053981;28;20044;-73
2022/02/06 06:09:50;;;;;;;7.40;1.77;;;4.50;11.80;;;;;;5056292;28;20179;-73
2022/02/06 06:12:15;;;;;;;9.77;3.33;;;4.30;12.20;;;;;;5057844;28;20452;-73
2022/02/06 06:14:43;;;;;;;10.27;2.25;;;4.20;12.90;;;;;;5058114;28;20041;-73
2022/02/06 06:17:09;;;;;;;7.25;1.50;;;4.30;12.70;;;;;;5057664;28;20475;-73
2022/02/06 06:19:36;;;;;;;7.00;1.40;;;4.50;12.60;;;;;;5058208;28;20068;-73
2022/02/06 06:22:06;;;;;;;2.50;1.10;;;4.50;13.00;;;;;;5057943;28;20045;-73
2022/02/06 06:24:39;;;;;;;5.07;1.07;;;4.70;12.10;;;;;;5057964;28;20040;-73
2022/02/06 06:27:05;;;;;;;6.72;1.75;;;4.50;13.00;;;;;;5057761;28;20099;-73
2022/02/06 06:29:31;;;;;;;9.05;2.03;;;4.40;13.30;;;;;;5058151;28;20072;-73
2022/02/06 06:31:57;;;;;;;4.50;1.30;;;4.40;13.60;;;;;;5057490;28;20049;-73
2022/02/06 06:34:22;;;;;;;6.25;1.80;;;4.30;16.00;;;;;;5058187;28;20119;-73
2022/02/06 06:36:50;;;;;;;9.27;1.73;;;4.40;14.00;;;;;;5057917;28;20048;-73
2022/02/06 06:39:31;;;;;;;5.40;2.35;;;4.30;14.60;;;;;;5058227;28;20487;-73
2022/02/06 06:41:57;;;;;;;5.65;1.65;;;4.20;15.60;;;;;;5058146;28;20045;-73
2022/02/06 06:44:23;;;;;;;8.20;1.90;;;4.30;15.60;;;;;;5051635;28;20033;-73
2022/02/06 06:46:49;;;;;;;8.98;2.05;;;4.20;17.10;;;;;;5037783;28;20053;-73
2022/02/06 06:49:15;;;;;;;8.75;2.53;;;4.20;18.10;;;;;;5043189;28;20098;-73
2022/02/06 06:51:41;;;;;;;9.27;2.38;;;4.10;29.90;;;;;;5057446;28;20128;-73
2022/02/06 06:54:13;;;;;;;5.82;1.42;;;4.00;24.90;;;;;;5057631;28;20114;-73
2022/02/06 06:56:51;;;;;;;8.02;1.35;;;3.90;26.00;;;;;;5057675;28;20047;-73
2022/02/06 07:02:18;;;;;;;8.15;1.80;;;4.30;26.90;;;;;;5057092;28;20602;-73
2022/02/06 07:04:46;;;;;;;5.82;1.35;;;4.50;28.10;;;;;;5057867;28;20052;-73
2022/02/06 07:07:13;;;;;;;6.25;1.45;;;4.50;29.20;;;;;;5057256;28;20047;-73
2022/02/06 07:09:39;;;;;;;6.22;1.40;;;4.70;29.30;;;;;;5057312;28;20175;-73
2022/02/06 07:12:07;;;;;;;6.57;1.40;;;4.70;29.30;;;;;;5057516;28;20091;-73
2022/02/06 07:14:33;;;;;;;6.65;1.35;;;4.70;29.20;;;;;;5057263;28;20484;-73
2022/02/06 07:16:59;;;;;;;1.42;0.98;;;4.80;30.60;;;;;;5057078;28;20041;-73
2022/02/06 07:19:25;;;;;;;5.25;1.20;;;4.80;30.00;;;;;;5057361;28;20049;-73
2022/02/06 07:21:51;;;;;;;6.32;1.50;;;4.70;30.00;;;;;;5055953;28;20545;-73
2022/02/06 07:24:18;;;;;;;7.15;1.48;;;4.80;30.90;;;;;;5057067;28;20071;-73
2022/02/06 07:26:47;;;;;;;5.90;1.40;;;4.90;35.30;;;;;;5057275;28;20128;-73
2022/02/06 07:29:16;;;;;;;8.57;1.55;;;4.90;32.70;;;;;;5057827;28;20041;-73
2022/02/06 07:31:43;;;;;;;7.13;1.67;;;4.90;34.70;;;;;;5056459;28;20072;-73
2022/02/06 07:34:09;;;;;;;5.95;1.42;;;5.00;41.20;;;;;;5057140;28;20131;-73
2022/02/06 07:36:35;;;;;;;6.88;1.50;;;5.10;21.30;;;;;;5056746;28;20128;-73
2022/02/06 07:39:01;;;;;;;5.13;1.58;;;5.20;19.90;;;;;;5041545;28;20120;-73
2022/02/06 07:41:26;;;;;;;3.65;1.55;;;5.20;19.70;;;;;;5036311;28;20496;-73
2022/02/06 07:43:52;;;;;;;4.90;1.90;;;5.30;19.20;;;;;;5036262;28;20041;-73
2022/02/06 07:46:23;;;;;;;8.63;2.38;;;5.30;18.80;;;;;;5036116;28;20459;-73
2022/02/06 07:48:48;;;;;;;7.20;2.75;;;5.30;18.80;;;;;;5037084;28;20050;-73
2022/02/06 07:51:14;;;;;;;8.90;2.30;;;5.30;18.90;;;;;;5047639;28;20699;-73
2022/02/06 07:53:40;;;;;;;5.03;1.98;;;5.30;19.20;;;;;;5062477;28;20041;-72
2022/02/06 07:56:06;;;;;;;6.30;2.33;;;5.30;18.90;;;;;;5049892;28;20034;-72
2022/02/06 07:58:32;;;;;;;6.75;1.70;;;5.40;19.10;;;;;;5041124;28;20406;-73
2022/02/06 08:00:58;;;;;;;6.22;1.67;;;5.30;19.00;;;;;;5055162;28;20040;-73
2022/02/06 08:03:26;;;;;;;5.30;1.60;;;5.30;18.90;;;;;;5050854;28;20088;-73
2022/02/06 08:05:52;;;;;;;6.20;1.60;;;5.30;19.60;;;;;;5055505;28;20040;-73
2022/02/06 08:08:18;;;;;;;7.20;1.73;;;5.30;19.90;;;;;;5055892;28;20043;-73
2022/02/06 08:10:44;;;;;;;6.65;1.63;;;5.30;19.90;;;;;;5037377;28;20129;-73
2022/02/06 08:13:21;;;;;;;5.70;1.83;;;5.40;20.40;;;;;;5036031;28;20480;-73
2022/02/06 08:15:46;;;;;;;6.18;1.90;;;5.40;20.30;;;;;;5035786;28;20092;-73
2022/02/06 08:18:12;;;;;;;3.90;1.48;;;5.50;20.20;;;;;;5035890;28;20488;-73
2022/02/06 08:20:40;;;;;;;8.38;1.60;;;5.70;20.10;;;;;;5034834;28;20120;-74
2022/02/06 08:23:06;;;;;;;4.57;1.42;;;5.70;20.20;;;;;;5055277;28;20029;-74
2022/02/06 08:25:33;;;;;;;4.72;1.65;;;5.70;20.50;;;;;;5048927;28;20392;-73
2022/02/06 08:28:03;;;;;;;4.68;1.42;;;5.80;20.90;;;;;;5060000;28;20123;-73
2022/02/06 08:30:31;;;;;;;6.00;2.03;;;5.80;21.10;;;;;;5076030;28;20083;-73
2022/02/06 08:32:59;;;;;;;6.30;2.33;;;5.70;23.30;;;;;;5075224;28;20063;-73
2022/02/06 08:35:25;;;;;;;7.13;1.85;;;5.80;23.20;;;;;;5060949;28;20049;-74
2022/02/06 08:37:51;;;;;;;8.95;1.77;;;5.90;23.10;;;;;;5043047;28;20087;-73
2022/02/06 08:40:18;;;;;;;7.15;1.50;;;5.90;23.00;;;;;;5048649;28;20032;-73
2022/02/06 08:42:45;;;;;;;10.27;1.98;;;6.00;23.00;;;;;;5053979;28;20428;-73
2022/02/06 08:45:11;;;;;;;7.80;1.70;;;5.90;23.50;;;;;;5035485;28;20069;-73
2022/02/06 08:47:39;;;;;;;7.03;1.63;;;6.00;24.40;;;;;;5035447;28;20041;-73
2022/02/06 08:50:06;;;;;;;5.60;1.60;;;6.10;38.70;;;;;;5035349;28;20084;-73
2022/02/06 08:52:32;;;;;;;5.32;1.60;;;6.10;39.00;;;;;;5047767;28;20464;-73
2022/02/06 08:54:58;;;;;;;5.78;1.70;;;6.10;38.70;;;;;;5053762;28;20112;-73
2022/02/06 08:57:27;;;;;;;7.40;1.40;;;6.20;38.80;;;;;;5042561;28;20132;-73
2022/02/06 08:59:54;;;;;;;5.32;1.45;;;6.20;38.70;;;;;;5033547;28;20046;-73
2022/02/06 09:02:20;;;;;;;4.15;1.40;;;6.10;38.50;;;;;;5052310;28;20036;-73
2022/02/06 09:04:46;;;;;;;8.25;1.60;;;6.20;38.80;;;;;;5041716;28;20051;-73
2022/02/06 09:07:12;;;;;;;5.80;1.33;;;6.30;38.00;;;;;;5046408;28;20044;-72
2022/02/06 09:09:44;;;;;;;5.32;1.60;;;6.30;38.70;;;;;;5061772;28;20530;-72
2022/02/06 09:12:10;;;;;;;10.07;1.73;;;6.40;37.20;;;;;;5053537;28;20045;-73
2022/02/06 09:14:37;;;;;;;6.13;1.77;;;6.40;38.40;;;;;;5047798;28;20044;-74
2022/02/06 09:17:03;;;;;;;6.45;1.70;;;6.40;38.40;;;;;;5052113;28;20048;-71
2022/02/06 09:19:30;;;;;;;5.10;1.70;;;6.50;37.20;;;;;;5053450;28;20044;-71
2022/02/06 09:21:59;;;;;;;7.43;1.70;;;6.60;38.20;;;;;;5036243;28;20041;-71
2022/02/06 09:24:25;;;;;;;5.22;1.50;;;6.70;38.00;;;;;;5050575;28;20068;-71
2022/02/06 09:26:51;;;;;;;3.35;1.35;;;6.70;37.60;;;;;;5054652;28;20044;-71
2022/02/06 09:29:17;;;;;;;8.15;1.60;;;6.80;36.50;;;;;;5054865;28;20115;-71
2022/02/06 09:31:49;;;;;;;7.55;1.40;;;6.90;36.40;;;;;;5054228;28;20428;-71
2022/02/06 09:36:43;;;;;;;6.82;1.50;;;7.10;36.40;;;;;;5049455;28;20411;-71
2022/02/06 09:39:11;;;;;;;6.82;1.40;;;7.20;35.50;;;;;;5044677;28;20434;-73
2022/02/06 09:41:37;;;;;;;6.35;1.45;;;7.30;35.50;;;;;;5016646;28;20399;-71
2022/02/06 09:44:05;;;;;;;6.45;1.65;;;7.20;39.80;;;;;;5042405;28;20580;-71
2022/02/06 09:46:32;;;;;;;4.88;1.25;;;7.30;36.30;;;;;;5053517;28;20167;-72
2022/02/06 09:48:58;;;;;;;3.75;1.50;;;7.40;35.20;;;;;;5053727;28;20068;-71
2022/02/06 09:51:24;;;;;;;9.20;2.13;;;7.40;35.20;;;;;;5048901;28;20040;-72
2022/02/06 09:53:50;;;;;;;8.00;1.35;;;7.50;35.30;;;;;;5053574;28;20033;-72
2022/02/06 09:56:18;;;;;;;4.68;1.42;;;7.60;35.50;;;;;;5053298;28;20183;-72
2022/02/06 09:58:58;;;;;;;6.10;1.58;;;7.50;34.50;;;;;;5034903;28;20042;-72
2022/02/06 10:01:26;;;;;;;8.27;1.77;;;7.60;34.70;;;;;;5034125;28;20581;-72
2022/02/06 10:04:01;;;;;;;3.83;1.15;;;7.60;33.90;;;;;;5038245;28;20515;-72
2022/02/06 10:06:51;;;;;;;5.25;1.85;;;7.50;33.50;;;;;;5043072;28;20061;-72
2022/02/06 10:09:31;;;;;;;5.60;1.52;;;7.40;34.90;;;;;;5054447;28;20049;-72
2022/02/06 10:11:58;;;;;;;8.23;2.05;;;7.30;35.30;;;;;;5033691;28;20531;-71
2022/02/06 10:14:24;;;;;;;6.72;1.98;;;7.10;35.70;;;;;;5033769;28;20037;-72
2022/02/06 10:16:51;;;;;;;8.15;1.98;;;6.90;36.40;;;;;;5034049;28;20135;-72
2022/02/06 10:19:17;;;;;;;7.10;2.53;;;7.10;36.10;;;;;;5033729;28;20045;-72
2022/02/06 10:21:45;;;;;;;8.63;2.40;;;7.10;36.60;;;;;;5035203;28;20048;-72
2022/02/06 10:24:33;;;;;;;6.88;2.22;;;7.00;37.30;;;;;;5053438;28;20029;-72
2022/02/06 10:27:17;;;;;;;4.68;1.63;;;7.10;37.40;;;;;;5045183;28;20049;-72
2022/02/06 10:29:44;;;;;;;5.38;1.55;;;7.20;35.90;;;;;;5049677;28;20070;-72
2022/02/06 10:32:17;;;;;;;10.43;2.95;;;7.20;36.00;;;;;;5055150;28;20135;-71
2022/02/06 10:34:44;;;;;;;5.20;2.13;;;7.00;36.70;;;;;;5047160;28;20044;-71
2022/02/06 10:37:19;;;;;;;1.98;1.65;;;7.10;36.20;;;;;;5050744;28;20048;-71
2022/02/06 10:40:02;;;;;;;24.33;13.40;;;7.40;36.00;;;;;;5040566;28;20091;-71
2022/02/06 10:42:30;;;;;;;14.30;7.10;;;7.60;34.70;;;;;;5045279;28;20554;-71
2022/02/06 10:45:29;;;;;;;14.38;8.75;;;8.00;34.70;;;;;;5049143;28;20116;-71
2022/02/06 10:47:57;;;;;;;11.70;8.10;;;8.10;33.90;;;;;;5032241;28;20049;-71
2022/02/06 10:50:29;;;;;;;5.65;2.83;;;8.50;33.10;;;;;;5039409;28;20053;-71
2022/02/06 10:53:10;;;;;;;7.20;2.85;;;8.40;33.50;;;;;;5049499;28;20047;-71
2022/02/06 10:55:49;;;;;;;8.33;4.30;;;8.20;33.50;;;;;;5034870;28;20377;-71
2022/02/06 10:58:18;;;;;;;3.58;1.70;;;8.00;33.60;;;;;;5042503;28;20268;-71
2022/02/06 11:00:43;;;;;;;3.47;1.90;;;8.00;36.90;;;;;;5036823;28;20044;-71
2022/02/06 11:03:37;;;;;;;5.65;1.70;;;8.20;34.00;;;;;;5036157;28;20045;-71
2022/02/06 11:06:12;;;;;;;4.95;1.85;;;8.50;32.40;;;;;;5036614;28;20108;-71
2022/02/06 11:08:39;;;;;;;5.10;1.20;;;8.70;32.00;;;;;;5035850;28;20049;-70
2022/02/06 11:11:08;;;;;;;4.80;1.50;;;8.80;31.40;;;;;;5041118;28;20056;-70
2022/02/06 11:13:35;;;;;;;4.68;1.80;;;8.90;31.60;;;;;;5054249;28;20044;-70
2022/02/06 11:16:14;;;;;;;3.00;1.05;;;8.90;30.70;;;;;;5047798;28;20037;-71
2022/02/06 11:18:52;;;;;;;2.95;1.20;;;8.60;30.70;;;;;;5034721;28;20041;-70
2022/02/06 11:21:19;;;;;;;3.20;1.25;;;8.80;30.40;;;;;;5036336;28;20376;-70
2022/02/06 11:23:49;;;;;;;5.93;1.90;;;8.40;30.00;;;;;;5050822;28;20045;-71
2022/02/06 11:26:17;;;;;;;6.32;2.13;;;8.50;31.10;;;;;;5055391;28;20498;-70
2022/02/06 11:28:45;;;;;;;5.13;1.88;;;8.40;31.20;;;;;;5054122;28;20111;-70
2022/02/06 11:31:11;;;;;;;5.13;1.30;;;8.40;31.10;;;;;;5055501;28;20057;-70
2022/02/06 11:33:37;;;;;;;2.33;1.48;;;8.40;30.80;;;;;;5054945;28;20057;-70
2022/02/06 11:36:13;;;;;;;2.65;1.00;;;8.40;30.30;;;;;;5054837;28;20453;-70
2022/02/06 11:45:16;;;;;;;4.68;1.05;;;8.40;27.90;;;;;;5042861;28;20043;-70
2022/02/06 11:47:55;;;;;;;4.55;2.17;;;8.70;28.90;;;;;;5054291;28;20045;-72
2022/02/06 11:50:22;;;;;;;7.63;4.78;;;8.80;28.70;;;;;;5050948;28;20047;-71
2022/02/06 11:52:50;;;;;;;3.40;2.38;;;9.00;28.20;;;;;;5041794;28;20072;-70
2022/02/06 11:55:50;;;;;;;5.05;1.70;;;9.00;28.20;;;;;;5035109;28;20388;-71
2022/02/06 11:58:32;;;;;;;3.47;1.23;;;9.20;28.00;;;;;;5055731;28;20048;-69
2022/02/06 12:01:14;;;;;;;3.33;1.30;;;9.30;28.00;;;;;;5054863;28;20138;-70
2022/02/06 12:03:57;;;;;;;4.97;1.60;;;9.00;28.00;;;;;;5055153;28;20041;-71
2022/02/06 12:06:26;;;;;;;4.90;2.00;;;9.50;27.90;;;;;;5054723;28;20120;-69
2022/02/06 12:09:01;;;;;;;2.50;1.30;;;9.40;27.30;;;;;;5038065;28;20120;-69
2022/02/06 12:11:28;;;;;;;4.07;1.55;;;9.50;26.60;;;;;;5040928;28;20137;-70
2022/02/06 12:14:28;;;;;;;4.28;1.85;;;9.60;26.40;;;;;;5054060;28;20033;-71
2022/02/06 12:18:13;;;;;;;6.22;2.05;;;9.70;26.70;;;;;;5044022;28;20040;-70
2022/02/06 12:20:11;;;;;;;4.93;1.73;;;9.60;25.50;;;;;;5040751;28;20068;-69
2022/02/06 12:22:41;;;;;;;5.53;1.60;;;9.70;25.90;;;;;;5046680;28;20063;-70
2022/02/06 12:25:36;;;;;;;7.85;2.78;;;9.80;25.40;;;;;;5039126;28;20092;-70
2022/02/06 12:28:18;;;;;;;4.32;1.75;;;9.60;25.80;;;;;;5034621;28;20184;-70
2022/02/06 12:30:46;;;;;;;7.93;3.15;;;9.70;25.50;;;;;;5035841;28;20055;-71
2022/02/06 12:33:27;;;;;;;4.03;1.30;;;10.00;25.20;;;;;;5035638;28;20088;-70
2022/02/06 12:38:38;;;;;;;3.72;1.67;;;9.70;22.00;;;;;;5036013;28;20117;-70
2022/02/06 12:41:27;;;;;;;8.52;3.83;;;9.90;21.10;;;;;;5048484;28;20124;-69
2022/02/06 12:43:57;;;;;;;6.95;3.03;;;9.90;21.50;;;;;;5034322;28;20029;-69
2022/02/06 12:46:25;;;;;;;2.95;1.20;;;10.00;20.40;;;;;;5047755;28;20037;-69
2022/02/06 12:48:52;;;;;;;5.78;1.33;;;10.00;19.70;;;;;;5053313;28;20049;-69
2022/02/06 12:51:29;;;;;;;6.85;2.25;;;9.90;19.60;;;;;;5054485;28;20051;-70
2022/02/06 12:54:08;;;;;;;3.80;1.80;;;9.70;19.80;;;;;;5054481;28;20036;-69
2022/02/06 12:56:34;;;;;;;3.58;1.58;;;9.80;19.70;;;;;;5059317;28;20128;-71
2022/02/06 12:59:01;;;;;;;4.45;1.73;;;9.60;19.30;;;;;;5070282;28;20028;-71
2022/02/06 13:01:45;;;;;;;7.80;1.52;;;9.50;18.80;;;;;;5067635;28;20558;-71
2022/02/06 13:04:14;;;;;;;3.65;1.60;;;9.60;17.50;;;;;;5064460;28;20533;-71
2022/02/06 13:06:45;;;;;;;3.42;1.38;;;9.80;16.90;;;;;;5034049;28;20045;-69
2022/02/06 13:09:28;;;;;;;4.13;1.58;;;9.60;17.00;;;;;;5033966;28;20036;-70
2022/02/06 13:12:02;;;;;;;3.78;1.00;;;9.80;16.60;;;;;;5041443;28;20123;-69
2022/02/06 13:15:26;;;;;;;5.95;1.38;;;9.70;16.80;;;;;;5054178;28;20068;-70
2022/02/06 13:22:49;;;;;;;5.65;1.02;;;9.90;16.90;;;;;;5053659;28;20044;-70
2022/02/06 13:30:59;;;;;;;2.70;0.60;;;10.00;17.40;;;;;;5053290;28;20029;-71
2022/02/06 13:38:52;;;;;;;1.90;0.90;;;9.20;19.90;;;;;;5046057;28;20080;-70
2022/02/06 13:41:24;;;;;;;3.47;1.17;;;9.60;20.80;;;;;;5040304;28;20044;-74
2022/02/06 13:43:54;;;;;;;4.63;1.30;;;9.90;21.70;;;;;;5051208;28;20068;-70
2022/02/06 13:46:24;;;;;;;5.60;1.20;;;9.90;20.90;;;;;;5034311;28;20030;-70
2022/02/06 13:48:51;;;;;;;2.78;1.25;;;9.70;21.30;;;;;;5034529;28;20082;-70
2022/02/06 13:51:23;;;;;;;2.55;0.88;;;9.70;24.00;;;;;;5039693;28;20626;-71
2022/02/06 13:54:04;;;;;;;4.53;1.38;;;9.60;47.90;;;;;;5049962;28;20043;-70
2022/02/06 13:56:32;;;;;;;2.10;0.75;;;9.70;41.90;;;;;;5045322;28;20045;-70
2022/02/06 13:59:06;;;;;;;5.50;1.35;;;9.60;45.00;;;;;;5048191;28;20041;-70
2022/02/06 14:01:45;;;;;;;6.07;1.52;;;9.40;50.70;;;;;;5038455;28;20041;-70
2022/02/06 14:04:31;;;;;;;2.58;0.90;;;9.60;57.70;;;;;;5036481;28;20487;-71
2022/02/06 14:07:15;;;;;;;3.90;1.27;;;9.70;70.00;;;;;;5039433;28;20102;-71
2022/02/06 14:12:20;;;;;;;3.45;1.60;;;;;;;;;;5044995;28;20044;-69
2022/02/06 14:14:59;;;;;;;3.90;1.20;;;;;;;;;;5046653;28;20049;-70
2022/02/06 14:17:28;;;;;;;5.38;1.67;;;;;;;;;;5045695;28;20510;-70
2022/02/06 14:19:57;;;;;;;6.55;2.20;;;9.40;84.00;;;;;;5038384;28;20053;-70
2022/02/06 14:22:37;;;;;;;6.38;1.20;;;9.40;83.60;;;;;;5034868;28;20045;-70
2022/02/06 14:25:09;;;;;;;2.03;1.13;;;9.20;83.30;;;;;;5046307;28;20024;-70
2022/02/06 14:27:38;;;;;;;3.55;2.00;;;9.10;81.40;;;;;;5051188;28;20052;-70
2022/02/06 14:30:22;;;;;;;3.60;1.67;;;9.00;75.00;;;;;;5051454;28;20562;-70
2022/02/06 14:32:55;;;;;;;2.95;1.40;;;8.80;71.90;;;;;;5050411;28;20042;-70
2022/02/06 14:35:23;;;;;;;2.53;1.10;;;9.00;58.70;;;;;;5044921;28;20120;-69
2022/02/06 14:37:55;;;;;;;5.57;2.05;;;9.00;59.20;;;;;;5042184;28;20041;-69
2022/02/06 14:43:04;;;;;;;3.13;1.40;;;8.90;58.10;;;;;;5035323;28;20034;-70
2022/02/06 14:45:31;;;;;;;2.42;0.90;;;8.90;58.60;;;;;;5050899;28;20076;-70
2022/02/06 14:47:57;;;;;;;2.38;1.10;;;8.90;58.00;;;;;;5054819;28;20075;-70
2022/02/06 14:50:23;;;;;;;2.67;0.68;;;8.80;57.80;;;;;;5048254;28;20095;-69
2022/02/06 14:52:50;;;;;;;5.32;1.50;;;8.80;57.50;;;;;;5055049;28;20123;-70
2022/02/06 14:55:17;;;;;;;6.10;1.52;;;8.70;57.30;;;;;;5059546;28;20045;-70
2022/02/06 14:57:44;;;;;;;5.28;2.40;;;8.60;57.80;;;;;;5047634;28;20124;-70
2022/02/06 15:00:12;;;;;;;7.03;1.83;;;8.80;58.00;;;;;;5049282;28;20136;-69
2022/02/06 15:02:39;;;;;;;4.40;1.65;;;8.70;58.50;;;;;;5035703;28;20045;-68
2022/02/06 15:05:06;;;;;;;8.65;3.25;;;8.70;59.20;;;;;;5025207;28;20037;-70
2022/02/06 15:07:33;;;;;;;3.28;1.27;;;8.70;59.30;;;;;;5051526;28;20148;-72
2022/02/06 15:09:59;;;;;;;4.57;1.30;;;8.70;58.70;;;;;;5041533;28;20049;-70
2022/02/06 15:12:26;;;;;;;2.50;1.00;;;8.70;59.50;;;;;;5041033;28;20091;-70
2022/02/06 15:14:54;;;;;;;3.72;1.40;;;8.60;59.60;;;;;;5046264;28;20040;-70
2022/02/06 15:17:22;;;;;;;4.78;2.00;;;8.60;60.30;;;;;;5049798;28;20056;-70
2022/02/06 15:19:50;;;;;;;3.70;1.52;;;8.40;61.00;;;;;;5042685;28;20033;-69
2022/02/06 15:22:16;;;;;;;5.65;1.90;;;8.50;61.60;;;;;;5048362;28;20045;-69
2022/02/06 15:24:42;;;;;;;3.65;1.70;;;8.50;61.30;;;;;;5053814;28;20041;-69
2022/02/06 15:27:12;;;;;;;3.40;1.50;;;8.50;61.10;;;;;;5036859;28;20075;-70
2022/02/06 15:29:43;;;;;;;3.05;1.00;;;8.50;61.50;;;;;;5043534;28;20041;-70
2022/02/06 15:32:09;;;;;;;3.45;1.17;;;8.40;61.80;;;;;;5043520;28;20053;-70
2022/02/06 15:34:44;;;;;;;6.95;2.00;;;8.40;62.40;;;;;;5052235;28;20111;-70
2022/02/06 15:37:13;;;;;;;3.72;0.90;;;8.40;62.80;;;;;;5045125;28;20049;-70
2022/02/06 15:39:43;;;;;;;5.85;1.17;;;8.30;62.50;;;;;;5040374;28;20503;-70
2022/02/06 15:42:16;;;;;;;3.42;1.13;;;8.30;63.90;;;;;;5046684;28;20044;-70
2022/02/06 15:44:46;;;;;;;4.28;0.80;;;8.30;63.90;;;;;;5046192;28;20048;-70
2022/02/06 15:47:14;;;;;;;3.30;0.70;;;8.20;65.10;;;;;;5036842;28;20049;-71
2022/02/06 15:49:42;;;;;;;2.58;1.02;;;8.20;65.20;;;;;;5044892;28;20117;-70
2022/02/06 15:52:13;;;;;;;2.53;0.80;;;8.30;66.40;;;;;;5047997;28;20124;-70
2022/02/06 15:54:40;;;;;;;3.53;1.30;;;8.20;68.10;;;;;;5039613;28;20044;-70
2022/02/06 15:57:08;;;;;;;2.92;1.23;;;8.20;68.40;;;;;;5036759;28;20041;-70
2022/02/06 15:59:34;;;;;;;9.80;4.38;;;8.10;67.60;;;;;;5034491;28;20044;-70